Time;durP1;ratioP1;P1;durP2;ratioP2;P2;SDS_P1;SDS_P2;PMS_P1;PMS_P2;Temp;Humidity;BMP_temperature;BMP_pressure;BME280_temperature;BME280_humidity;BME280_pressure;Samples;Min_cycle;Max_cycle;Signal;HPM_P1;HPM_P2
2023/05/17 00:00:26;;;;;;;;;;;15.60;99.90;;;;;;5092200;28;19908;-68
2023/05/17 00:02:53;;;;;;;;;;;15.70;99.90;;;;;;5092946;28;19912;-68
2023/05/17 00:05:19;;;;;;;;;;;15.70;99.90;;;;;;5091684;28;19923;-66
2023/05/17 00:07:47;;;;;;;;;;;15.80;99.90;;;;;;5088386;28;19984;-67
2023/05/17 00:10:13;;;;;;;;;;;15.80;99.90;;;;;;5087985;28;19995;-68
2023/05/17 00:12:40;;;;;;;;;;;15.90;99.90;;;;;;5090195;28;19912;-67
2023/05/17 00:15:07;;;;;;;;;;;15.90;99.90;;;;;;5090149;28;19930;-64
2023/05/17 00:17:36;;;;;;;;;;;16.00;99.90;;;;;;5092752;28;20282;-64
2023/05/17 00:20:03;;;;;;;;;;;16.00;99.90;;;;;;5093348;28;20353;-65
2023/05/17 00:22:30;;;;;;;;;;;16.10;99.90;;;;;;5093364;28;19909;-63
2023/05/17 00:24:56;;;;;;;;;;;16.10;99.90;;;;;;5092244;28;19930;-65
2023/05/17 00:27:23;;;;;;;;;;;16.10;99.90;;;;;;5092746;28;19961;-65
2023/05/17 00:29:49;;;;;;;;;;;16.10;99.90;;;;;;5092562;28;19908;-63
2023/05/17 00:32:16;;;;;;;;;;;16.30;99.90;;;;;;5093159;28;19912;-65
2023/05/17 00:34:43;;;;;;;;;;;16.50;99.90;;;;;;5092742;28;19908;-68
2023/05/17 00:37:09;;;;;;;;;;;16.50;99.90;;;;;;5092052;28;20356;-65
2023/05/17 00:39:36;;;;;;;;;;;16.30;99.90;;;;;;5092861;28;19912;-61
2023/05/17 00:42:03;;;;;;;;;;;16.40;99.90;;;;;;5092635;28;20289;-64
2023/05/17 00:44:30;;;;;;;;;;;16.50;99.90;;;;;;5092584;28;19916;-65
2023/05/17 00:46:58;;;;;;;;;;;16.60;99.90;;;;;;5092308;28;19931;-64
2023/05/17 00:49:28;;;;;;;;;;;16.60;99.90;;;;;;5093117;28;20399;-66
2023/05/17 00:51:55;;;;;;;;;;;16.50;99.90;;;;;;5092838;28;19940;-66
2023/05/17 00:54:22;;;;;;;;;;;16.50;99.90;;;;;;5092554;28;20373;-64
2023/05/17 00:56:49;;;;;;;;;;;16.50;99.90;;;;;;5092127;28;19938;-64
2023/05/17 00:59:16;;;;;;;;;;;16.50;99.90;;;;;;5092372;28;19908;-65
2023/05/17 01:01:43;;;;;;;;;;;16.50;99.90;;;;;;5091657;28;20003;-63
2023/05/17 01:04:10;;;;;;;;;;;16.50;99.90;;;;;;5091425;28;19962;-67
2023/05/17 01:06:36;;;;;;;;;;;16.70;99.90;;;;;;5091651;28;19908;-64
2023/05/17 01:09:04;;;;;;;;;;;16.80;99.90;;;;;;5091669;28;20392;-66
2023/05/17 01:11:30;;;;;;;;;;;16.90;99.90;;;;;;5092279;28;20010;-63
2023/05/17 01:13:57;;;;;;;;;;;17.00;99.90;;;;;;5091142;28;19916;-64
2023/05/17 01:16:29;;;;;;;;;;;17.10;99.90;;;;;;5091900;28;19912;-64
2023/05/17 01:19:14;;;;;;;;;;;17.30;99.90;;;;;;5092506;28;19914;-65
2023/05/17 01:21:59;;;;;;;;;;;17.30;99.90;;;;;;5092931;28;19999;-64
2023/05/17 01:24:49;;;;;;;;;;;17.40;99.90;;;;;;5091681;28;19920;-66
2023/05/17 01:27:16;;;;;;;;;;;17.40;99.90;;;;;;5048905;28;19916;-65
2023/05/17 01:29:43;;;;;;;;;;;17.30;99.90;;;;;;5074463;28;19908;-67
2023/05/17 01:32:10;;;;;;;;;;;17.30;99.90;;;;;;5091912;28;20380;-66
2023/05/17 01:34:37;;;;;;;;;;;17.30;99.90;;;;;;5091744;28;19917;-65
2023/05/17 01:37:04;;;;;;;;;;;17.30;99.90;;;;;;5091956;28;19908;-65
2023/05/17 01:39:30;;;;;;;;;;;17.40;99.90;;;;;;5092290;28;19909;-66
2023/05/17 01:42:02;;;;;;;;;;;17.40;99.90;;;;;;5094967;28;20365;-65
2023/05/17 01:44:34;;;;;;;;;;;17.40;99.90;;;;;;5095094;28;19924;-65
2023/05/17 01:47:11;;;;;;;;;;;17.50;99.90;;;;;;5096164;28;19913;-64
2023/05/17 01:49:39;;;;;;;;;;;17.60;99.90;;;;;;5095773;28;19915;-65
2023/05/17 01:52:09;;;;;;;;;;;17.70;99.90;;;;;;5095495;28;19909;-65
2023/05/17 01:54:45;;;;;;;;;;;17.80;99.90;;;;;;5095829;28;19912;-64
2023/05/17 01:57:13;;;;;;;;;;;17.90;99.90;;;;;;5095556;28;19954;-64
2023/05/17 01:59:41;;;;;;;;;;;18.00;99.90;;;;;;5095533;28;19935;-66
2023/05/17 02:02:08;;;;;;;;;;;18.10;99.90;;;;;;5096368;28;19912;-66
2023/05/17 02:04:35;;;;;;;;;;;18.10;99.90;;;;;;5094940;28;19965;-68
2023/05/17 02:07:02;;;;;;;;;;;18.00;99.90;;;;;;5095151;28;19908;-64
2023/05/17 02:09:29;;;;;;;;;;;18.00;99.90;;;;;;5095612;28;19912;-65
2023/05/17 02:11:56;;;;;;;;;;;18.00;99.90;;;;;;5094807;28;19913;-66
2023/05/17 02:14:23;;;;;;;;;;;18.10;99.90;;;;;;5094471;28;20262;-67
2023/05/17 02:16:49;;;;;;;;;;;18.00;99.90;;;;;;5094592;28;19934;-67
2023/05/17 02:19:16;;;;;;;;;;;17.80;99.90;;;;;;5104708;28;19924;-63
2023/05/17 02:21:43;;;;;;;;;;;17.90;99.90;;;;;;5095110;28;19991;-66
2023/05/17 02:24:09;;;;;;;;;;;17.90;99.90;;;;;;5094843;28;19969;-66
2023/05/17 02:26:36;;;;;;;;;;;17.90;99.90;;;;;;5095183;28;19912;-67
2023/05/17 02:29:02;;;;;;;;;;;18.00;99.90;;;;;;5095447;28;19962;-66
2023/05/17 02:31:29;;;;;;;;;;;18.10;99.90;;;;;;5095119;28;20254;-67
2023/05/17 02:33:56;;;;;;;;;;;18.30;99.90;;;;;;5094812;28;20353;-65
2023/05/17 02:36:22;;;;;;;;;;;18.40;99.90;;;;;;5095272;28;19992;-68
2023/05/17 02:38:49;;;;;;;;;;;18.50;99.90;;;;;;5094731;28;19912;-65
2023/05/17 02:41:16;;;;;;;;;;;18.50;99.90;;;;;;5093633;28;19912;-65
2023/05/17 02:43:42;;;;;;;;;;;18.80;99.90;;;;;;5093168;28;19920;-63
2023/05/17 02:46:09;;;;;;;;;;;18.80;99.80;;;;;;5094134;28;19921;-65
2023/05/17 02:48:36;;;;;;;;;;;18.80;99.90;;;;;;5092827;28;20548;-66
2023/05/17 02:51:02;;;;;;;;;;;18.70;99.80;;;;;;5092514;28;19915;-66
2023/05/17 02:53:29;;;;;;;;;;;18.80;99.40;;;;;;5092722;28;19923;-65
2023/05/17 02:55:56;;;;;;;;;;;18.70;99.50;;;;;;5093356;28;19915;-65
2023/05/17 02:58:24;;;;;;;;;;;18.90;99.40;;;;;;5093315;28;19915;-65
2023/05/17 03:00:50;;;;;;;;;;;19.30;99.10;;;;;;5093121;28;19912;-66
2023/05/17 03:03:18;;;;;;;;;;;20.10;97.10;;;;;;5094529;28;20015;-64
2023/05/17 03:05:44;;;;;;;;;;;20.70;96.30;;;;;;5094544;28;20349;-62
2023/05/17 03:08:11;;;;;;;;;;;20.90;95.90;;;;;;5094231;28;19919;-67
2023/05/17 03:10:37;;;;;;;;;;;20.70;95.80;;;;;;5094349;28;19905;-65
2023/05/17 03:13:04;;;;;;;;;;;20.50;95.90;;;;;;5094231;28;19912;-63
2023/05/17 03:15:31;;;;;;;;;;;20.40;96.30;;;;;;5094255;28;19915;-65
2023/05/17 03:17:57;;;;;;;;;;;20.50;96.70;;;;;;5093964;28;19973;-67
2023/05/17 03:20:25;;;;;;;;;;;21.30;95.60;;;;;;5094677;28;19908;-64
2023/05/17 03:22:51;;;;;;;;;;;21.80;94.80;;;;;;5094306;28;19912;-65
2023/05/17 03:25:18;;;;;;;;;;;22.00;94.30;;;;;;5093837;28;19924;-67
2023/05/17 03:27:44;;;;;;;;;;;21.70;94.40;;;;;;5093679;28;20002;-64
2023/05/17 03:30:11;;;;;;;;;;;21.90;94.40;;;;;;5094236;28;19908;-66
2023/05/17 03:32:41;;;;;;;;;;;22.10;93.80;;;;;;5094027;28;19909;-65
2023/05/17 03:35:08;;;;;;;;;;;22.60;92.70;;;;;;5092907;28;19923;-63
2023/05/17 03:37:34;;;;;;;;;;;23.10;91.90;;;;;;5093556;28;19908;-65
2023/05/17 03:40:01;;;;;;;;;;;24.60;91.00;;;;;;5093944;28;19962;-67
2023/05/17 03:42:28;;;;;;;;;;;26.00;88.30;;;;;;5093522;28;20357;-64
2023/05/17 03:44:54;;;;;;;;;;;27.00;85.20;;;;;;5093157;28;19920;-67
2023/05/17 03:47:24;;;;;;;;;;;27.00;82.60;;;;;;5092961;28;19919;-67
2023/05/17 03:49:50;;;;;;;;;;;26.70;82.00;;;;;;5093721;28;19908;-66
2023/05/17 03:52:17;;;;;;;;;;;26.40;81.30;;;;;;5093632;28;19920;-66
2023/05/17 03:54:44;;;;;;;;;;;26.40;80.40;;;;;;5093468;28;20009;-63
2023/05/17 03:57:10;;;;;;;;;;;26.20;80.10;;;;;;5093719;28;20308;-67
2023/05/17 03:59:37;;;;;;;;;;;26.30;79.80;;;;;;5093182;28;19916;-67
2023/05/17 04:02:04;;;;;;;;;;;26.30;79.80;;;;;;5093597;28;20459;-66
2023/05/17 04:04:31;;;;;;;;;;;26.70;78.90;;;;;;5092666;28;19912;-66
2023/05/17 04:06:57;;;;;;;;;;;26.60;79.20;;;;;;5092972;28;19920;-67
2023/05/17 04:09:24;;;;;;;;;;;25.70;81.20;;;;;;5093356;28;20330;-67
2023/05/17 04:11:51;;;;;;;;;;;24.70;82.80;;;;;;5102458;28;19962;-67
2023/05/17 04:14:18;;;;;;;;;;;23.70;85.50;;;;;;5093030;28;19912;-65
2023/05/17 04:16:45;;;;;;;;;;;23.40;86.90;;;;;;5093259;28;19947;-64
2023/05/17 04:19:11;;;;;;;;;;;23.10;86.50;;;;;;5093019;28;20381;-66
2023/05/17 04:21:38;;;;;;;;;;;22.80;87.00;;;;;;5093334;28;20421;-64
2023/05/17 04:24:04;;;;;;;;;;;22.10;88.00;;;;;;5093084;28;19908;-66
2023/05/17 04:26:31;;;;;;;;;;;21.50;90.10;;;;;;5093394;28;19912;-64
2023/05/17 04:28:58;;;;;;;;;;;21.20;90.50;;;;;;5092454;28;19916;-67
2023/05/17 04:31:25;;;;;;;;;;;20.80;90.90;;;;;;5093184;28;19908;-67
2023/05/17 04:33:52;;;;;;;;;;;20.50;91.10;;;;;;5092231;28;19919;-64
2023/05/17 04:36:18;;;;;;;;;;;20.20;91.50;;;;;;5092525;28;20304;-66
2023/05/17 04:38:46;;;;;;;;;;;20.00;92.30;;;;;;5092619;28;19915;-67
2023/05/17 04:41:12;;;;;;;;;;;19.70;92.70;;;;;;5092523;28;19908;-65
2023/05/17 04:43:39;;;;;;;;;;;19.60;93.00;;;;;;5091792;28;20289;-66
2023/05/17 04:46:06;;;;;;;;;;;19.50;93.30;;;;;;5092749;28;19917;-64
2023/05/17 04:48:32;;;;;;;;;;;19.70;93.40;;;;;;5092665;28;20023;-64
2023/05/17 04:51:06;;;;;;;;;;;19.90;92.60;;;;;;5092163;28;19919;-66
2023/05/17 04:53:33;;;;;;;;;;;20.00;92.40;;;;;;5092360;28;19999;-67
2023/05/17 04:55:59;;;;;;;;;;;20.00;92.10;;;;;;5092598;28;19915;-66
2023/05/17 04:58:26;;;;;;;;;;;20.00;92.40;;;;;;5092582;28;19931;-65
2023/05/17 05:00:52;;;;;;;;;;;20.10;92.30;;;;;;5091897;28;19912;-67
2023/05/17 05:03:20;;;;;;;;;;;20.00;92.30;;;;;;5091821;28;19912;-67
2023/05/17 05:05:46;;;;;;;;;;;19.70;92.00;;;;;;5092139;28;19949;-66
2023/05/17 05:08:13;;;;;;;;;;;19.50;92.30;;;;;;5092278;28;19960;-66
2023/05/17 05:10:40;;;;;;;;;;;19.30;92.00;;;;;;5091811;28;19943;-64
2023/05/17 05:13:06;;;;;;;;;;;19.00;92.70;;;;;;5092087;28;19994;-65
2023/05/17 05:15:33;;;;;;;;;;;19.00;93.20;;;;;;5091356;28;19953;-64
2023/05/17 05:17:59;;;;;;;;;;;18.80;94.00;;;;;;5092564;28;19908;-66
2023/05/17 05:20:26;;;;;;;;;;;18.60;94.60;;;;;;5090548;28;20345;-65
2023/05/17 05:22:53;;;;;;;;;;;18.40;95.70;;;;;;5090799;28;20003;-65
2023/05/17 05:25:19;;;;;;;;;;;18.40;96.50;;;;;;5090799;28;20316;-62
2023/05/17 05:27:46;;;;;;;;;;;18.50;96.50;;;;;;5091566;28;19959;-65
2023/05/17 05:30:20;;;;;;;;;;;18.40;96.70;;;;;;5091614;28;19931;-65
2023/05/17 05:32:48;;;;;;;;;;;18.30;97.20;;;;;;5090618;28;20007;-67
2023/05/17 05:35:15;;;;;;;;;;;18.40;97.60;;;;;;5090853;28;20011;-67
2023/05/17 05:37:42;;;;;;;;;;;18.60;97.50;;;;;;5092171;28;19908;-67
2023/05/17 05:40:09;;;;;;;;;;;18.80;97.20;;;;;;5088909;28;20007;-64
2023/05/17 05:42:36;;;;;;;;;;;18.70;97.20;;;;;;5091061;28;20322;-63
2023/05/17 05:45:02;;;;;;;;;;;18.40;97.10;;;;;;5090992;28;19916;-65
2023/05/17 05:47:29;;;;;;;;;;;18.20;97.40;;;;;;5092144;28;19975;-66
2023/05/17 05:49:56;;;;;;;;;;;18.00;97.60;;;;;;5090414;28;19908;-65
2023/05/17 05:52:22;;;;;;;;;;;17.90;98.00;;;;;;5090090;28;19912;-65
2023/05/17 05:54:49;;;;;;;;;;;18.00;98.10;;;;;;5089502;28;19919;-65
2023/05/17 05:57:15;;;;;;;;;;;18.30;97.50;;;;;;5089712;28;20280;-65
2023/05/17 05:59:42;;;;;;;;;;;18.70;97.50;;;;;;5090444;28;19908;-66
2023/05/17 06:02:09;;;;;;;;;;;19.40;96.50;;;;;;5089542;28;19919;-67
2023/05/17 06:04:35;;;;;;;;;;;19.90;95.70;;;;;;5089243;28;20323;-67
2023/05/17 06:07:02;;;;;;;;;;;20.10;95.00;;;;;;5089120;28;19966;-66
2023/05/17 06:09:29;;;;;;;;;;;20.20;94.90;;;;;;5089926;28;20364;-63
2023/05/17 06:11:55;;;;;;;;;;;20.50;94.60;;;;;;5090213;28;19908;-65
2023/05/17 06:14:22;;;;;;;;;;;20.70;93.80;;;;;;5070182;28;19920;-63
2023/05/17 06:16:49;;;;;;;;;;;20.30;93.80;;;;;;5089935;28;19960;-64
2023/05/17 06:19:15;;;;;;;;;;;19.70;94.20;;;;;;5089685;28;19916;-64
2023/05/17 06:21:42;;;;;;;;;;;19.10;95.30;;;;;;5085656;28;19920;-64
2023/05/17 06:24:09;;;;;;;;;;;18.70;96.30;;;;;;5090141;28;19912;-64
2023/05/17 06:26:36;;;;;;;;;;;18.20;97.50;;;;;;5088496;28;20250;-65
2023/05/17 06:29:02;;;;;;;;;;;17.80;99.60;;;;;;5093364;28;19958;-66
2023/05/17 06:31:29;;;;;;;;;;;17.30;99.90;;;;;;5091774;28;19983;-63
2023/05/17 06:33:56;;;;;;;;;;;17.00;99.90;;;;;;5093066;28;19912;-62
2023/05/17 06:36:23;;;;;;;;;;;16.70;99.90;;;;;;5093415;28;19920;-62
2023/05/17 06:38:50;;;;;;;;;;;16.60;99.90;;;;;;5094343;28;19914;-65
2023/05/17 06:41:16;;;;;;;;;;;16.40;99.90;;;;;;5093525;28;19908;-65
2023/05/17 06:43:44;;;;;;;;;;;16.20;99.90;;;;;;5092912;28;19920;-64
2023/05/17 06:46:11;;;;;;;;;;;16.10;99.90;;;;;;5085650;28;19927;-66
2023/05/17 06:48:38;;;;;;;;;;;16.00;99.90;;;;;;5094339;28;19944;-63
2023/05/17 06:51:04;;;;;;;;;;;15.90;99.90;;;;;;5099243;28;19986;-64
2023/05/17 06:53:31;;;;;;;;;;;15.80;99.90;;;;;;5097321;28;19916;-65
2023/05/17 06:55:58;;;;;;;;;;;15.70;99.90;;;;;;5094484;28;19919;-64
2023/05/17 06:58:25;;;;;;;;;;;15.70;99.90;;;;;;5095034;28;19916;-64
2023/05/17 07:00:52;;;;;;;;;;;15.60;99.90;;;;;;5094479;28;19908;-63
2023/05/17 07:03:19;;;;;;;;;;;15.50;99.90;;;;;;5100069;28;20371;-63
2023/05/17 07:05:45;;;;;;;;;;;15.50;99.90;;;;;;5098303;28;19963;-62
2023/05/17 07:08:14;;;;;;;;;;;15.40;99.90;;;;;;5094528;28;20002;-65
2023/05/17 07:10:40;;;;;;;;;;;15.40;99.90;;;;;;5089782;28;20359;-64
2023/05/17 07:13:07;;;;;;;;;;;15.40;99.90;;;;;;5086568;28;20357;-64
2023/05/17 07:15:33;;;;;;;;;;;15.30;99.90;;;;;;5083812;28;19912;-63
2023/05/17 07:18:00;;;;;;;;;;;15.30;99.90;;;;;;5093429;28;19923;-63
2023/05/17 07:20:27;;;;;;;;;;;15.30;99.90;;;;;;5093139;28;19924;-64
2023/05/17 07:22:53;;;;;;;;;;;15.20;99.90;;;;;;5094192;28;19908;-61
2023/05/17 07:25:20;;;;;;;;;;;15.30;99.90;;;;;;5093562;28;19916;-62
2023/05/17 07:27:47;;;;;;;;;;;15.30;99.90;;;;;;5093468;28;19954;-63
2023/05/17 07:30:13;;;;;;;;;;;15.20;99.90;;;;;;5094026;28;19908;-64
2023/05/17 07:32:40;;;;;;;;;;;15.30;99.90;;;;;;5073610;28;19915;-62
2023/05/17 07:35:07;;;;;;;;;;;15.20;99.90;;;;;;5092127;28;20353;-62
2023/05/17 07:37:33;;;;;;;;;;;15.10;99.90;;;;;;5093337;28;19916;-63
2023/05/17 07:40:00;;;;;;;;;;;15.10;99.90;;;;;;5093349;28;19912;-62
2023/05/17 07:42:27;;;;;;;;;;;15.00;99.90;;;;;;5092787;28;19928;-63
2023/05/17 07:44:53;;;;;;;;;;;14.90;99.90;;;;;;5089888;28;19920;-66
2023/05/17 07:47:20;;;;;;;;;;;14.90;99.90;;;;;;5091089;28;19908;-64
2023/05/17 07:49:46;;;;;;;;;;;14.90;99.90;;;;;;5092496;28;19923;-66
2023/05/17 07:52:13;;;;;;;;;;;14.70;99.90;;;;;;5092905;28;19951;-63
2023/05/17 07:54:40;;;;;;;;;;;14.70;99.90;;;;;;5093294;28;19955;-64
2023/05/17 07:57:06;;;;;;;;;;;14.70;99.90;;;;;;5093120;28;19912;-61
2023/05/17 07:59:33;;;;;;;;;;;14.70;99.90;;;;;;5091996;28;19916;-64
2023/05/17 08:02:00;;;;;;;;;;;14.70;99.90;;;;;;5092304;28;19908;-63
2023/05/17 08:04:26;;;;;;;;;;;14.70;99.90;;;;;;5092724;28;19912;-62
2023/05/17 08:06:54;;;;;;;;;;;14.80;99.90;;;;;;5093013;28;20345;-63
2023/05/17 08:09:21;;;;;;;;;;;14.90;99.90;;;;;;5092699;28;19919;-63
2023/05/17 08:11:47;;;;;;;;;;;14.90;99.90;;;;;;5092224;28;19916;-64
2023/05/17 08:14:14;;;;;;;;;;;15.00;99.90;;;;;;5092626;28;20587;-63
2023/05/17 08:16:41;;;;;;;;;;;15.00;99.90;;;;;;5092542;28;19912;-63
2023/05/17 08:19:11;;;;;;;;;;;14.90;99.90;;;;;;5092865;28;19913;-63
2023/05/17 08:21:38;;;;;;;;;;;14.90;99.90;;;;;;5091943;28;19916;-66
2023/05/17 08:24:05;;;;;;;;;;;14.90;99.90;;;;;;5092929;28;19951;-64
2023/05/17 08:26:32;;;;;;;;;;;14.80;99.90;;;;;;5092487;28;19912;-64
2023/05/17 08:29:01;;;;;;;;;;;14.80;99.90;;;;;;5092932;28;19912;-65
2023/05/17 08:31:28;;;;;;;;;;;14.80;99.90;;;;;;5091922;28;20446;-63
2023/05/17 08:33:55;;;;;;;;;;;14.80;99.90;;;;;;5092709;28;19987;-64
2023/05/17 08:36:21;;;;;;;;;;;14.80;99.90;;;;;;5093228;28;19915;-65
2023/05/17 08:38:48;;;;;;;;;;;14.80;99.90;;;;;;5092746;28;19916;-65
2023/05/17 08:41:15;;;;;;;;;;;14.60;99.90;;;;;;5092272;28;19912;-67
2023/05/17 08:43:43;;;;;;;;;;;14.50;99.90;;;;;;5092196;28;19920;-67
2023/05/17 08:46:10;;;;;;;;;;;14.50;99.90;;;;;;5092394;28;20490;-69
2023/05/17 08:48:42;;;;;;;;;;;14.40;99.90;;;;;;5091980;28;20155;-65
2023/05/17 08:51:11;;;;;;;;;;;14.40;99.90;;;;;;5092103;28;19961;-66
2023/05/17 08:53:38;;;;;;;;;;;14.30;99.90;;;;;;5091734;28;20360;-67
2023/05/17 08:56:05;;;;;;;;;;;14.20;99.90;;;;;;5092247;28;19916;-66
2023/05/17 08:58:36;;;;;;;;;;;14.20;99.90;;;;;;5091792;28;20387;-67
2023/05/17 09:01:03;;;;;;;;;;;14.20;99.90;;;;;;5092629;28;19962;-66
2023/05/17 09:03:30;;;;;;;;;;;14.10;99.90;;;;;;5092446;28;19915;-67
2023/05/17 09:05:58;;;;;;;;;;;14.10;99.90;;;;;;5092021;28;19997;-64
2023/05/17 09:08:25;;;;;;;;;;;14.10;99.90;;;;;;5091830;28;19912;-67
2023/05/17 09:10:53;;;;;;;;;;;14.00;99.90;;;;;;5092345;28;20000;-67
2023/05/17 09:13:20;;;;;;;;;;;14.00;99.90;;;;;;5091660;28;19908;-66
2023/05/17 09:15:48;;;;;;;;;;;14.00;99.90;;;;;;5092327;28;19915;-67
2023/05/17 09:18:15;;;;;;;;;;;14.00;99.90;;;;;;5092155;28;19908;-66
2023/05/17 09:20:42;;;;;;;;;;;13.90;99.90;;;;;;5091861;28;19912;-66
2023/05/17 09:23:13;;;;;;;;;;;14.00;99.90;;;;;;5092070;28;19912;-66
2023/05/17 09:25:49;;;;;;;;;;;13.90;99.90;;;;;;5092551;28;19916;-66
2023/05/17 09:28:18;;;;;;;;;;;13.90;99.90;;;;;;5092174;28;19908;-64
2023/05/17 09:30:47;;;;;;;;;;;13.90;99.90;;;;;;5092078;28;19912;-65
2023/05/17 09:33:14;;;;;;;;;;;13.90;99.90;;;;;;5090825;28;20012;-66
2023/05/17 09:35:42;;;;;;;;;;;13.90;99.90;;;;;;5090452;28;19974;-67
2023/05/17 09:38:10;;;;;;;;;;;13.90;99.90;;;;;;5092131;28;20380;-67
2023/05/17 09:40:43;;;;;;;;;;;14.00;99.90;;;;;;5091415;28;19954;-68
2023/05/17 09:43:10;;;;;;;;;;;14.00;99.90;;;;;;5085303;28;20027;-64
2023/05/17 09:45:37;;;;;;;;;;;14.00;99.90;;;;;;5091012;28;20419;-67
2023/05/17 09:48:14;;;;;;;;;;;14.00;99.90;;;;;;5092599;28;19965;-63
2023/05/17 09:50:47;;;;;;;;;;;14.10;99.90;;;;;;5092152;28;19978;-63
2023/05/17 09:53:26;;;;;;;;;;;14.20;99.90;;;;;;5085700;28;19914;-63
2023/05/17 09:55:54;;;;;;;;;;;14.20;99.90;;;;;;5088016;28;20368;-66
2023/05/17 09:58:21;;;;;;;;;;;14.20;99.90;;;;;;5092120;28;20402;-63
2023/05/17 10:00:52;;;;;;;;;;;14.20;99.90;;;;;;5091539;28;19935;-64
2023/05/17 10:03:20;;;;;;;;;;;14.20;99.90;;;;;;5094796;28;20011;-62
2023/05/17 10:05:49;;;;;;;;;;;14.30;99.90;;;;;;5087549;28;19960;-63
2023/05/17 10:08:17;;;;;;;;;;;14.20;99.90;;;;;;5075449;28;19909;-65
2023/05/17 10:10:45;;;;;;;;;;;14.30;99.90;;;;;;5079103;28;19908;-66
2023/05/17 10:13:12;;;;;;;;;;;14.30;99.90;;;;;;5095072;28;19908;-63
2023/05/17 10:15:40;;;;;;;;;;;14.20;99.90;;;;;;5094835;28;20418;-64
2023/05/17 10:18:07;;;;;;;;;;;14.20;99.90;;;;;;5095614;28;19912;-66
2023/05/17 10:20:35;;;;;;;;;;;14.20;99.90;;;;;;5095937;28;20420;-67
2023/05/17 10:23:02;;;;;;;;;;;14.30;99.90;;;;;;5095736;28;20276;-64
2023/05/17 10:25:29;;;;;;;;;;;14.30;99.90;;;;;;5094844;28;19924;-62
2023/05/17 10:27:56;;;;;;;;;;;14.20;99.90;;;;;;5094301;28;19952;-65
2023/05/17 10:30:22;;;;;;;;;;;14.20;99.90;;;;;;5094342;28;19915;-64
2023/05/17 10:32:50;;;;;;;;;;;14.10;99.90;;;;;;5094368;28;20296;-66
2023/05/17 10:35:16;;;;;;;;;;;14.10;99.90;;;;;;5095084;28;19908;-64
2023/05/17 10:37:43;;;;;;;;;;;14.10;99.90;;;;;;5094733;28;19908;-64
2023/05/17 10:40:13;;;;;;;;;;;14.00;99.90;;;;;;5094187;28;20387;-64
2023/05/17 10:42:41;;;;;;;;;;;13.90;99.90;;;;;;5094816;28;20014;-62
2023/05/17 10:45:08;;;;;;;;;;;13.90;99.90;;;;;;5094947;28;19916;-65
2023/05/17 10:47:35;;;;;;;;;;;13.80;99.90;;;;;;5095476;28;19930;-63
2023/05/17 10:50:08;;;;;;;;;;;13.80;99.90;;;;;;5094892;28;20339;-63
2023/05/17 10:52:37;;;;;;;;;;;13.80;99.90;;;;;;5094188;28;19916;-63
2023/05/17 10:55:07;;;;;;;;;;;13.80;99.90;;;;;;5095013;28;19934;-63
2023/05/17 10:57:35;;;;;;;;;;;13.80;99.90;;;;;;5092867;28;19965;-63
2023/05/17 11:00:05;;;;;;;;;;;13.80;99.90;;;;;;5094579;28;19908;-63
2023/05/17 11:02:32;;;;;;;;;;;13.90;99.90;;;;;;5095643;28;19912;-64
2023/05/17 11:04:59;;;;;;;;;;;13.90;99.90;;;;;;5093184;28;19920;-63
2023/05/17 11:07:28;;;;;;;;;;;13.90;99.90;;;;;;5093040;28;19957;-65
2023/05/17 11:10:07;;;;;;;;;;;13.90;99.90;;;;;;5092912;28;19950;-64
2023/05/17 11:12:35;;;;;;;;;;;13.90;99.90;;;;;;5091985;28;19915;-64
2023/05/17 11:15:06;;;;;;;;;;;13.90;99.90;;;;;;5092726;28;20273;-63
2023/05/17 11:17:55;;;;;;;;;;;13.90;99.90;;;;;;5093047;28;19908;-63
2023/05/17 11:20:24;;;;;;;;;;;14.00;99.90;;;;;;5094278;28;19996;-64
2023/05/17 11:22:53;;;;;;;;;;;14.00;99.90;;;;;;5094078;28;19908;-64
2023/05/17 11:25:20;;;;;;;;;;;14.00;99.90;;;;;;5094395;28;20261;-64
2023/05/17 11:27:48;;;;;;;;;;;14.00;99.90;;;;;;5093882;28;19920;-65
2023/05/17 11:30:31;;;;;;;;;;;13.90;99.90;;;;;;5076485;28;20277;-64
2023/05/17 11:33:02;;;;;;;;;;;13.80;99.90;;;;;;5094298;28;19923;-63
2023/05/17 11:35:31;;;;;;;;;;;13.80;99.90;;;;;;5094052;28;19912;-65
2023/05/17 11:38:14;;;;;;;;;;;13.80;99.90;;;;;;5094600;28;19919;-64
2023/05/17 11:40:42;;;;;;;;;;;13.80;99.90;;;;;;5092656;28;20322;-67
2023/05/17 11:43:19;;;;;;;;;;;13.80;99.90;;;;;;5076225;28;19935;-63
2023/05/17 11:45:49;;;;;;;;;;;13.80;99.90;;;;;;5094326;28;20343;-64
2023/05/17 11:48:18;;;;;;;;;;;13.70;99.90;;;;;;5094331;28;20285;-64
2023/05/17 11:50:45;;;;;;;;;;;13.70;99.90;;;;;;5092962;28;19912;-64
2023/05/17 11:53:12;;;;;;;;;;;13.70;99.90;;;;;;5092348;28;19999;-63
2023/05/17 11:55:40;;;;;;;;;;;13.70;99.90;;;;;;5075895;28;19914;-64
2023/05/17 11:58:08;;;;;;;;;;;13.70;99.90;;;;;;5093338;28;19905;-64
2023/05/17 12:00:36;;;;;;;;;;;13.60;99.90;;;;;;5093447;28;20377;-65
2023/05/17 12:03:16;;;;;;;;;;;13.70;99.90;;;;;;5093700;28;19916;-63
2023/05/17 12:05:43;;;;;;;;;;;13.70;99.90;;;;;;5094152;28;19922;-66
2023/05/17 12:08:10;;;;;;;;;;;13.70;99.90;;;;;;5094506;28;19998;-64
2023/05/17 12:10:37;;;;;;;;;;;13.70;99.90;;;;;;5094049;28;19916;-64
2023/05/17 12:13:03;;;;;;;;;;;13.70;99.90;;;;;;5094287;28;19958;-63
2023/05/17 12:15:31;;;;;;;;;;;13.70;99.90;;;;;;5093610;28;19920;-64
2023/05/17 12:17:57;;;;;;;;;;;13.80;99.90;;;;;;5093260;28;20288;-64
2023/05/17 12:20:24;;;;;;;;;;;13.80;99.90;;;;;;5094186;28;20365;-64
2023/05/17 12:22:54;;;;;;;;;;;13.90;99.90;;;;;;5093815;28;20288;-65
2023/05/17 12:25:24;;;;;;;;;;;13.80;99.90;;;;;;5093251;28;19920;-64
2023/05/17 12:27:51;;;;;;;;;;;13.80;99.90;;;;;;5093705;28;19912;-63
2023/05/17 12:30:18;;;;;;;;;;;13.80;99.90;;;;;;5093481;28;19912;-65
2023/05/17 12:32:45;;;;;;;;;;;13.70;99.90;;;;;;5093640;28;20467;-65
2023/05/17 12:35:12;;;;;;;;;;;13.70;99.90;;;;;;5093880;28;20326;-64
2023/05/17 12:37:39;;;;;;;;;;;13.70;99.90;;;;;;5093698;28;19933;-64
2023/05/17 12:40:06;;;;;;;;;;;13.60;99.90;;;;;;5093044;28;19922;-64
2023/05/17 12:42:33;;;;;;;;;;;13.50;99.90;;;;;;5093535;28;19920;-64
2023/05/17 12:44:59;;;;;;;;;;;13.50;99.90;;;;;;5093615;28;20280;-65
2023/05/17 12:47:32;;;;;;;;;;;13.30;99.90;;;;;;5093727;28;20254;-65
2023/05/17 12:50:02;;;;;;;;;;;13.30;99.90;;;;;;5093498;28;19944;-63
2023/05/17 12:52:37;;;;;;;;;;;13.30;99.90;;;;;;5092897;28;19920;-63
2023/05/17 12:55:04;;;;;;;;;;;13.20;99.90;;;;;;5093445;28;20348;-63
2023/05/17 12:57:31;;;;;;;;;;;13.20;99.90;;;;;;5093370;28;19908;-62
2023/05/17 13:00:01;;;;;;;;;;;13.10;99.90;;;;;;5093602;28;20003;-65
2023/05/17 13:02:28;;;;;;;;;;;13.10;99.90;;;;;;5092846;28;19908;-65
2023/05/17 13:04:54;;;;;;;;;;;13.10;99.90;;;;;;5093255;28;19912;-64
2023/05/17 13:07:24;;;;;;;;;;;13.00;99.90;;;;;;5093070;28;19912;-64
2023/05/17 13:09:51;;;;;;;;;;;13.00;99.90;;;;;;5092754;28;19912;-64
2023/05/17 13:12:19;;;;;;;;;;;13.00;99.90;;;;;;5093136;28;19912;-63
2023/05/17 13:14:47;;;;;;;;;;;12.90;99.90;;;;;;5092893;28;20009;-65
2023/05/17 13:17:33;;;;;;;;;;;12.90;99.90;;;;;;5090234;28;19912;-64
2023/05/17 13:20:00;;;;;;;;;;;12.90;99.90;;;;;;5092673;28;19908;-63
2023/05/17 13:22:26;;;;;;;;;;;12.80;99.90;;;;;;5092327;28;19918;-63
2023/05/17 13:24:53;;;;;;;;;;;12.70;99.90;;;;;;5092454;28;19919;-67
2023/05/17 13:27:20;;;;;;;;;;;12.70;99.90;;;;;;5092385;28;20292;-64
2023/05/17 13:29:47;;;;;;;;;;;12.70;99.90;;;;;;5072874;28;19908;-65
2023/05/17 13:32:14;;;;;;;;;;;12.60;99.90;;;;;;5072700;28;19915;-64
2023/05/17 13:34:40;;;;;;;;;;;12.60;99.90;;;;;;5072732;28;20348;-63
2023/05/17 13:37:07;;;;;;;;;;;12.60;99.90;;;;;;5077996;28;19912;-63
2023/05/17 13:39:34;;;;;;;;;;;12.60;99.90;;;;;;5092561;28;19934;-63
2023/05/17 13:42:02;;;;;;;;;;;12.60;99.90;;;;;;5092522;28;19923;-67
2023/05/17 13:44:28;;;;;;;;;;;12.60;99.90;;;;;;5092573;28;20392;-64
2023/05/17 13:46:55;;;;;;;;;;;12.60;99.90;;;;;;5091216;28;19920;-65
2023/05/17 13:49:22;;;;;;;;;;;12.50;99.90;;;;;;5092933;28;19908;-62
2023/05/17 13:51:48;;;;;;;;;;;12.50;99.90;;;;;;5092668;28;19994;-64
2023/05/17 13:54:15;;;;;;;;;;;12.50;99.90;;;;;;5092572;28;19908;-64
2023/05/17 13:56:42;;;;;;;;;;;12.40;99.90;;;;;;5093405;28;19941;-64
2023/05/17 13:59:08;;;;;;;;;;;12.40;99.90;;;;;;5093232;28;20361;-64
2023/05/17 14:01:35;;;;;;;;;;;12.40;99.90;;;;;;5092421;28;19947;-64
2023/05/17 14:04:02;;;;;;;;;;;12.40;99.90;;;;;;5092427;28;19916;-66
2023/05/17 14:06:28;;;;;;;;;;;12.40;99.90;;;;;;5092331;28;20535;-64
2023/05/17 14:08:56;;;;;;;;;;;12.30;99.90;;;;;;5092425;28;19931;-66
2023/05/17 14:11:23;;;;;;;;;;;12.30;99.90;;;;;;5092763;28;19908;-64
2023/05/17 14:13:49;;;;;;;;;;;12.30;99.90;;;;;;5092706;28;19955;-67
2023/05/17 14:16:16;;;;;;;;;;;12.30;99.90;;;;;;5092260;28;19912;-64
2023/05/17 14:18:43;;;;;;;;;;;12.30;99.90;;;;;;5092533;28;19915;-65